MRJ weather

Iowa County Airport
Mineral Point, Wisconsin, United States

Public forecast

Using degrees Fahrenheit for public forecast. Weather courtesy of forecast.io.

METAR (pilot weather report)

Retrieved 2019/08/23 01:35 UTC (18 minutes ago):

KMRJ 230135Z AUTO 06004KT SCT055 BKN075 20/15 A3007 RMK AO2 PWINO

TAF (pilot weather forecast)

Forecast is more than 12 hours old.

Closest forecast is Dubuque Regional Airport, 35.8 nm (66.4 km) SW. Retrieved 2019/08/22 00:22 UTC (1 day ago):

TAF KDBQ 222320Z 2300/2324 02005KT P6SM SKC FM231500 08008KT P6SM SKC